createdAt,value
2022-09-06T00:03:00.219Z,19.79
2022-09-06T00:09:20.157Z,19.79
2022-09-06T00:15:43.208Z,19.78
2022-09-06T00:22:03.170Z,19.78
2022-09-06T00:28:26.308Z,19.76
2022-09-06T00:34:46.138Z,19.82
2022-09-06T00:41:09.176Z,19.91
2022-09-06T00:47:29.148Z,19.98
2022-09-06T00:53:52.170Z,20.09
2022-09-06T01:00:12.156Z,20.2
2022-09-06T01:06:35.159Z,20.3
2022-09-06T01:12:55.175Z,20.39
2022-09-06T01:19:18.138Z,20.47
2022-09-06T01:25:38.158Z,20.52
2022-09-06T01:32:01.141Z,20.56
2022-09-06T01:38:21.196Z,20.59
2022-09-06T01:44:44.154Z,20.58
2022-09-06T01:51:04.140Z,20.53
2022-09-06T01:57:27.161Z,20.49
2022-09-06T02:03:47.128Z,20.47
2022-09-06T02:10:10.165Z,20.47
2022-09-06T02:16:30.238Z,20.38
2022-09-06T02:22:53.152Z,20.35
2022-09-06T02:29:13.157Z,20.21
2022-09-06T02:35:36.143Z,20.11
2022-09-06T02:41:56.145Z,19.98
2022-09-06T02:48:19.155Z,19.85
2022-09-06T02:54:39.137Z,19.81
2022-09-06T03:01:02.198Z,19.74
2022-09-06T03:07:22.131Z,19.75
2022-09-06T03:13:45.156Z,19.72
2022-09-06T03:20:05.173Z,19.6
2022-09-06T03:26:28.136Z,19.5
2022-09-06T03:32:48.168Z,19.35
2022-09-06T03:39:11.142Z,19.2
2022-09-06T03:45:31.211Z,19.11
2022-09-06T03:51:54.148Z,19.01
2022-09-06T03:58:14.150Z,18.94
2022-09-06T04:14:24.137Z,18.69
2022-09-06T04:20:44.214Z,18.52
2022-09-06T04:27:07.154Z,18.36
2022-09-06T04:33:27.159Z,18.22
2022-09-06T04:39:50.184Z,18.1
2022-09-06T04:46:10.294Z,18.02
2022-09-06T04:52:33.142Z,17.96
2022-09-06T04:58:53.147Z,17.86
2022-09-06T05:05:16.177Z,17.81
2022-09-06T05:11:36.141Z,17.75
2022-09-06T05:17:59.188Z,17.76
2022-09-06T05:24:19.145Z,17.74
2022-09-06T05:30:42.173Z,17.68
2022-09-06T05:37:02.156Z,17.65
2022-09-06T05:43:25.153Z,17.63
2022-09-06T05:49:45.196Z,17.63
2022-09-06T05:56:08.148Z,17.64
2022-09-06T06:02:28.203Z,17.71
2022-09-06T06:08:51.162Z,17.79
2022-09-06T06:15:11.165Z,17.88
2022-09-06T06:21:34.210Z,18.02
2022-09-06T06:27:54.165Z,18.19
2022-09-06T06:34:17.192Z,18.38
2022-09-06T06:40:37.176Z,18.58
2022-09-06T06:47:00.145Z,18.78
2022-09-06T06:53:20.178Z,18.96
2022-09-06T06:59:43.152Z,19.15
2022-09-06T07:12:26.180Z,19.63
2022-09-06T07:18:46.149Z,19.89
2022-09-06T07:25:09.195Z,20.13
2022-09-06T07:37:52.307Z,20.69
2022-09-06T07:44:12.168Z,21.01
2022-09-06T07:50:51.156Z,21.35
2022-09-06T07:56:55.195Z,21.69
2022-09-06T08:03:18.163Z,22.02
2022-09-06T08:09:38.200Z,22.34
2022-09-06T08:16:01.202Z,22.7
2022-09-06T08:22:21.143Z,23.11
2022-09-06T08:28:44.157Z,23.48
2022-09-06T08:35:04.319Z,23.84
2022-09-06T08:41:27.174Z,24.2
2022-09-06T08:47:47.144Z,24.55
2022-09-06T08:54:10.178Z,24.93
2022-09-06T09:00:30.171Z,25.26
2022-09-06T09:06:53.180Z,25.59
2022-09-06T09:13:14.170Z,25.86
2022-09-06T09:19:37.143Z,26.11
2022-09-06T09:25:57.208Z,26.41
2022-09-06T09:32:20.144Z,26.71
2022-09-06T09:38:40.174Z,26.96
2022-09-06T09:54:51.122Z,27.33
2022-09-06T10:01:11.222Z,27.72
2022-09-06T10:07:34.185Z,28.1
2022-09-06T10:13:54.146Z,28.47
2022-09-06T10:20:17.147Z,28.91
2022-09-06T10:26:37.151Z,29.25
2022-09-06T10:33:00.152Z,29.45
2022-09-06T10:39:20.168Z,29.65
2022-09-06T10:45:43.143Z,29.91
2022-09-06T10:52:03.140Z,30.22
2022-09-06T10:58:26.200Z,30.02
2022-09-06T11:11:09.163Z,30.65
2022-09-06T11:17:29.134Z,31.1
2022-09-06T11:23:52.169Z,31.52
2022-09-06T11:30:12.142Z,31.85
2022-09-06T11:36:35.199Z,32.15
2022-09-06T11:42:55.186Z,32.53
2022-09-06T11:49:18.306Z,32.81
2022-09-06T11:55:38.166Z,33.04
2022-09-06T12:02:01.380Z,33.25
2022-09-06T12:08:21.146Z,33.13
2022-09-06T12:14:44.157Z,32.56
2022-09-06T12:21:04.146Z,32
2022-09-06T12:27:27.159Z,31.53
2022-09-06T12:33:47.140Z,31.15
2022-09-06T12:40:10.269Z,31.05
2022-09-06T12:46:30.221Z,31.44
2022-09-06T12:52:53.138Z,32.12
2022-09-06T12:59:13.470Z,32.83
2022-09-06T13:05:36.147Z,33.41
2022-09-06T13:11:56.167Z,33.79
2022-09-06T13:18:19.149Z,34.09
2022-09-06T13:24:40.651Z,34.23
2022-09-06T13:31:02.177Z,34.47
2022-09-06T13:37:22.223Z,34.62
2022-09-06T13:43:45.171Z,34.57
2022-09-06T13:50:05.174Z,33.91
2022-09-06T13:56:28.168Z,33.65
2022-09-06T14:02:48.211Z,33.91
2022-09-06T14:09:11.307Z,33.76
2022-09-06T14:15:31.165Z,33.27
2022-09-06T14:21:54.169Z,32.77
2022-09-06T14:28:14.144Z,32.3
2022-09-06T14:34:37.148Z,31.84
2022-09-06T14:40:57.171Z,31.7
2022-09-06T14:47:20.141Z,31.68
2022-09-06T14:53:41.073Z,31.75
2022-09-06T15:00:03.149Z,31.64
2022-09-06T15:06:23.399Z,31.5
2022-09-06T15:12:46.171Z,31.41
2022-09-06T15:19:06.228Z,31.2
2022-09-06T15:41:37.169Z,31.19
2022-09-06T15:48:00.143Z,31.2
2022-09-06T15:54:20.179Z,31.23
2022-09-06T16:00:43.144Z,31.25
2022-09-06T16:07:03.143Z,31.18
2022-09-06T16:13:26.372Z,31.09
2022-09-06T16:19:46.352Z,31.07
2022-09-06T16:26:09.177Z,31.15
2022-09-06T16:32:29.457Z,31.22
2022-09-06T16:38:52.174Z,31.13
2022-09-06T16:45:12.139Z,30.78
2022-09-06T16:51:35.150Z,30.38
2022-09-06T16:57:55.157Z,30.04
2022-09-06T17:04:18.148Z,29.78
2022-09-06T17:10:38.172Z,29.54
2022-09-06T17:17:01.172Z,29.26
2022-09-06T17:23:21.172Z,29.04
2022-09-06T17:29:44.136Z,28.74
2022-09-06T17:36:04.186Z,28.5
2022-09-06T17:42:27.138Z,28.32
2022-09-06T17:48:47.180Z,28.13
2022-09-06T17:55:10.142Z,27.91
2022-09-06T18:01:30.257Z,27.64
2022-09-06T18:07:53.164Z,27.33
2022-09-06T18:14:13.141Z,27.08
2022-09-06T18:20:36.165Z,26.89
2022-09-06T18:26:56.144Z,26.77
2022-09-06T18:33:19.399Z,26.63
2022-09-06T18:39:39.185Z,26.49
2022-09-06T18:46:02.237Z,26.37
2022-09-06T18:52:22.163Z,26.25
2022-09-06T18:58:45.149Z,26.08
2022-09-06T19:05:05.162Z,25.9
2022-09-06T19:11:28.158Z,25.74
2022-09-06T19:17:48.358Z,25.56
2022-09-06T19:24:11.418Z,25.42
2022-09-06T19:30:31.153Z,25.28
2022-09-06T19:36:54.147Z,25.09
2022-09-06T19:43:14.140Z,24.97
2022-09-06T19:49:37.300Z,24.89
2022-09-06T19:55:57.147Z,24.79
2022-09-06T20:02:20.249Z,24.72
2022-09-06T20:08:40.142Z,24.67
2022-09-06T20:15:03.142Z,24.54
2022-09-06T20:21:23.185Z,24.4
2022-09-06T20:27:46.142Z,24.32
2022-09-06T20:34:06.168Z,24.32
2022-09-06T20:40:29.140Z,24.35
2022-09-06T20:46:49.156Z,24.32
2022-09-06T20:53:12.187Z,23.46
2022-09-06T20:59:32.131Z,22.87
2022-09-06T21:22:03.170Z,21.72
2022-09-06T21:28:26.151Z,21.38
2022-09-06T21:34:46.173Z,21.12
2022-09-06T21:41:09.150Z,20.84
2022-09-06T21:47:29.143Z,20.63
2022-09-06T21:53:52.172Z,20.48
2022-09-06T22:00:12.137Z,20.25
2022-09-06T22:23:09.141Z,20.18
2022-09-06T22:29:29.183Z,20.09
2022-09-06T22:35:52.146Z,19.92
2022-09-06T22:42:12.144Z,19.79
2022-09-06T22:48:35.166Z,19.69
2022-09-06T22:54:55.148Z,19.68
2022-09-06T23:01:18.267Z,19.64
2022-09-06T23:07:38.149Z,19.66
2022-09-06T23:14:01.162Z,19.66
2022-09-06T23:20:21.178Z,19.57
2022-09-06T23:26:44.185Z,19.43
2022-09-06T23:33:04.170Z,19.51
2022-09-06T23:39:27.184Z,19.9
2022-09-06T23:45:47.140Z,19.91
2022-09-06T23:52:10.159Z,19.38
2022-09-06T23:58:30.269Z,18.74
